Time;durP1;ratioP1;P1;durP2;ratioP2;P2;SDS_P1;SDS_P2;PMS_P1;PMS_P2;Temp;Humidity;BMP_temperature;BMP_pressure;BME280_temperature;BME280_humidity;BME280_pressure;Samples;Min_cycle;Max_cycle;Signal;HPM_P1;HPM_P2
2022/03/13 00:02:13;;;;;;;17.67;10.37;;;2.60;71.80;;;;;;5010495;28;20220;-67
2022/03/13 00:04:40;;;;;;;18.87;11.40;;;2.50;72.10;;;;;;5025724;28;20292;-67
2022/03/13 00:07:19;;;;;;;15.23;9.70;;;2.50;72.60;;;;;;5024015;28;20195;-67
2022/03/13 00:09:50;;;;;;;15.23;10.23;;;2.50;72.00;;;;;;5016159;28;20228;-67
2022/03/13 00:12:24;;;;;;;13.60;9.70;;;2.40;71.80;;;;;;4998536;28;20209;-67
2022/03/13 00:14:55;;;;;;;19.63;11.37;;;2.30;71.80;;;;;;5023341;28;20207;-67
2022/03/13 00:17:28;;;;;;;26.23;11.53;;;2.30;72.10;;;;;;5019992;28;20215;-67
2022/03/13 00:20:02;;;;;;;19.97;10.97;;;2.20;72.40;;;;;;5019487;28;20577;-67
2022/03/13 00:22:32;;;;;;;21.83;11.63;;;2.20;73.00;;;;;;5021917;28;20199;-67
2022/03/13 00:25:01;;;;;;;15.27;11.50;;;2.20;73.70;;;;;;5027201;28;20212;-67
2022/03/13 00:27:31;;;;;;;20.67;12.50;;;2.10;73.80;;;;;;5014684;28;20562;-67
2022/03/13 00:29:58;;;;;;;24.13;13.13;;;2.10;73.80;;;;;;5008801;28;20649;-67
2022/03/13 00:32:25;;;;;;;23.87;13.10;;;2.00;73.60;;;;;;5026598;28;20209;-67
2022/03/13 00:34:53;;;;;;;17.73;11.53;;;2.00;73.60;;;;;;5018021;28;20669;-67
2022/03/13 00:37:20;;;;;;;19.83;11.50;;;2.00;73.60;;;;;;5018900;28;20204;-67
2022/03/13 00:39:49;;;;;;;20.23;12.30;;;1.90;73.30;;;;;;5017685;28;20696;-67
2022/03/13 00:42:17;;;;;;;13.50;9.97;;;1.90;73.10;;;;;;4997992;28;20239;-67
2022/03/13 00:44:44;;;;;;;15.73;10.83;;;1.80;73.10;;;;;;5014757;28;20215;-67
2022/03/13 00:47:12;;;;;;;18.13;11.60;;;1.80;72.50;;;;;;5015516;28;20295;-67
2022/03/13 00:49:39;;;;;;;20.33;11.20;;;1.80;72.40;;;;;;5017759;28;20225;-67
2022/03/13 00:52:12;;;;;;;20.20;12.47;;;1.70;72.40;;;;;;5023361;28;20214;-67
2022/03/13 00:54:39;;;;;;;26.13;11.37;;;1.70;72.70;;;;;;5008923;28;20220;-67
2022/03/13 00:57:06;;;;;;;17.07;10.80;;;1.70;72.70;;;;;;5022477;28;20631;-67
2022/03/13 00:59:34;;;;;;;14.83;10.83;;;1.70;72.20;;;;;;5024141;28;20212;-67
2022/03/13 01:02:01;;;;;;;16.93;11.13;;;1.60;71.70;;;;;;5008718;28;20210;-67
2022/03/13 01:04:29;;;;;;;19.07;11.80;;;1.60;71.70;;;;;;5027378;28;20251;-67
2022/03/13 01:06:57;;;;;;;18.27;11.67;;;1.60;72.10;;;;;;5028313;28;20218;-67
2022/03/13 01:09:24;;;;;;;18.07;11.57;;;1.60;72.10;;;;;;5014470;28;20521;-67
2022/03/13 01:11:51;;;;;;;24.17;13.70;;;1.60;72.00;;;;;;5018724;28;20200;-67
2022/03/13 01:14:20;;;;;;;21.93;12.83;;;1.50;72.20;;;;;;4999815;28;20705;-67
2022/03/13 01:16:48;;;;;;;19.00;12.47;;;1.50;72.90;;;;;;5015219;28;20197;-67
2022/03/13 01:19:15;;;;;;;19.20;13.00;;;1.50;73.20;;;;;;5016763;28;20240;-67
2022/03/13 01:21:43;;;;;;;21.47;11.97;;;1.40;73.60;;;;;;5019388;28;20215;-67
2022/03/13 01:24:10;;;;;;;17.87;12.17;;;1.40;74.00;;;;;;5020459;28;20225;-67
2022/03/13 01:26:38;;;;;;;20.73;12.80;;;1.40;74.00;;;;;;5021332;28;20208;-67
2022/03/13 01:29:08;;;;;;;18.90;12.40;;;1.40;73.90;;;;;;5022673;28;20220;-67
2022/03/13 01:31:37;;;;;;;17.13;12.33;;;1.40;74.20;;;;;;5023897;28;20227;-67
2022/03/13 01:34:09;;;;;;;20.10;11.93;;;1.40;74.60;;;;;;5025980;28;20207;-67
2022/03/13 01:36:36;;;;;;;26.43;13.37;;;1.40;74.40;;;;;;5018940;28;20502;-67
2022/03/13 01:39:04;;;;;;;25.03;12.70;;;1.40;74.30;;;;;;5026495;28;20646;-67
2022/03/13 01:41:34;;;;;;;17.53;11.10;;;1.30;74.20;;;;;;4999962;28;20223;-67
2022/03/13 01:44:02;;;;;;;22.57;11.40;;;1.30;74.00;;;;;;4998742;28;20614;-67
2022/03/13 01:46:29;;;;;;;17.20;11.53;;;1.30;73.40;;;;;;5013624;28;20207;-67
2022/03/13 01:48:58;;;;;;;16.97;11.53;;;1.30;73.40;;;;;;5015305;28;20549;-67
2022/03/13 01:51:26;;;;;;;18.47;12.70;;;1.30;73.70;;;;;;5016399;28;20624;-67
2022/03/13 01:53:59;;;;;;;21.40;12.97;;;1.20;73.90;;;;;;5029720;28;20205;-67
2022/03/13 01:56:26;;;;;;;22.83;12.77;;;1.20;74.40;;;;;;5031265;28;20227;-67
2022/03/13 01:58:55;;;;;;;22.40;13.47;;;1.20;74.80;;;;;;5028173;28;20615;-67
2022/03/13 02:01:25;;;;;;;23.93;12.57;;;1.20;75.40;;;;;;5023855;28;20559;-67
2022/03/13 02:03:52;;;;;;;25.93;12.67;;;1.20;75.70;;;;;;5025710;28;20222;-67
2022/03/13 02:06:21;;;;;;;20.40;12.40;;;1.20;76.10;;;;;;5024675;28;20285;-67
2022/03/13 02:08:50;;;;;;;19.67;12.83;;;1.20;76.30;;;;;;5005661;28;20637;-67
2022/03/13 02:11:19;;;;;;;21.03;13.20;;;1.20;76.60;;;;;;5031608;28;20626;-67
2022/03/13 02:13:48;;;;;;;21.33;13.00;;;1.30;76.80;;;;;;5016372;28;20219;-67
2022/03/13 02:16:18;;;;;;;20.60;13.43;;;1.30;76.80;;;;;;5018452;28;20354;-67
2022/03/13 02:18:52;;;;;;;17.97;11.50;;;1.20;76.60;;;;;;5017496;28;20606;-67
2022/03/13 02:21:25;;;;;;;21.63;13.47;;;1.30;76.60;;;;;;5018660;28;20677;-67
2022/03/13 02:24:00;;;;;;;18.70;13.03;;;1.30;76.30;;;;;;5031843;28;20238;-67
2022/03/13 02:26:28;;;;;;;22.97;13.73;;;1.30;75.70;;;;;;5019569;28;20211;-67
2022/03/13 02:28:56;;;;;;;18.53;13.30;;;1.20;75.40;;;;;;5005949;28;20270;-67
2022/03/13 02:31:27;;;;;;;16.37;12.73;;;1.10;76.10;;;;;;5025150;28;20204;-67
2022/03/13 02:33:56;;;;;;;18.23;11.50;;;1.10;76.00;;;;;;5024910;28;20205;-67
2022/03/13 02:36:39;;;;;;;18.67;11.83;;;1.10;75.50;;;;;;5025436;28;20211;-67
2022/03/13 02:39:11;;;;;;;28.97;12.30;;;1.00;74.80;;;;;;5022146;28;20203;-66
2022/03/13 02:41:43;;;;;;;24.13;11.90;;;1.00;74.20;;;;;;5029934;28;20644;-66
2022/03/13 02:44:14;;;;;;;17.50;12.10;;;0.90;73.70;;;;;;5033333;28;20204;-66
2022/03/13 02:46:48;;;;;;;19.67;12.97;;;0.90;74.30;;;;;;5034456;28;20705;-66
2022/03/13 02:49:19;;;;;;;17.57;11.80;;;0.90;75.70;;;;;;5021928;28;20198;-66
2022/03/13 02:51:47;;;;;;;23.13;13.30;;;0.90;76.30;;;;;;5022307;28;20208;-66
2022/03/13 02:54:15;;;;;;;22.53;13.33;;;0.90;76.00;;;;;;5025469;28;20195;-66
2022/03/13 02:56:43;;;;;;;19.43;12.57;;;0.90;76.30;;;;;;5017944;28;20192;-66
2022/03/13 02:59:12;;;;;;;21.43;13.13;;;0.90;76.70;;;;;;5010755;28;20228;-66
2022/03/13 03:01:40;;;;;;;18.23;12.43;;;1.00;76.60;;;;;;5023457;28;20242;-67
2022/03/13 03:04:07;;;;;;;18.43;12.20;;;1.00;76.40;;;;;;5008534;28;20621;-67
2022/03/13 03:06:37;;;;;;;22.27;15.20;;;1.00;76.50;;;;;;5024678;28;20663;-67
2022/03/13 03:09:05;;;;;;;22.67;13.63;;;1.00;76.80;;;;;;5023982;28;20323;-67
2022/03/13 03:11:35;;;;;;;23.30;14.07;;;1.00;76.80;;;;;;5030330;28;20205;-66
2022/03/13 03:14:03;;;;;;;17.90;12.33;;;1.00;76.60;;;;;;5026552;28;20197;-66
2022/03/13 03:16:31;;;;;;;23.53;14.97;;;1.00;76.70;;;;;;5021189;28;20198;-66
2022/03/13 03:18:59;;;;;;;19.53;13.23;;;1.00;76.70;;;;;;5019548;28;20201;-66
2022/03/13 03:21:27;;;;;;;18.47;13.53;;;1.00;77.20;;;;;;5005630;28;20497;-66
2022/03/13 03:23:54;;;;;;;20.37;13.70;;;1.00;77.50;;;;;;5025849;28;20221;-66
2022/03/13 03:26:24;;;;;;;18.80;14.37;;;1.00;77.40;;;;;;5031969;28;20199;-66
2022/03/13 03:28:51;;;;;;;20.43;13.20;;;1.00;77.30;;;;;;5013383;28;20262;-66
2022/03/13 03:31:18;;;;;;;19.40;14.37;;;1.00;77.60;;;;;;5022791;28;20676;-66
2022/03/13 03:33:45;;;;;;;21.97;13.40;;;1.00;77.90;;;;;;5021794;28;20192;-66
2022/03/13 03:36:16;;;;;;;19.07;12.47;;;1.00;78.60;;;;;;5025664;28;20210;-66
2022/03/13 03:38:43;;;;;;;20.30;12.57;;;0.90;77.40;;;;;;5023885;28;20204;-66
2022/03/13 03:41:10;;;;;;;19.97;13.63;;;0.90;77.40;;;;;;5022881;28;20206;-66
2022/03/13 03:43:39;;;;;;;21.67;12.80;;;0.90;77.50;;;;;;5021197;28;20196;-66
2022/03/13 03:46:11;;;;;;;19.93;13.17;;;0.80;77.70;;;;;;5023778;28;20211;-66
2022/03/13 03:48:38;;;;;;;16.13;11.80;;;0.80;77.80;;;;;;5018077;28;20213;-66
2022/03/13 03:51:05;;;;;;;23.70;12.93;;;0.70;77.70;;;;;;4999194;28;20236;-66
2022/03/13 03:53:32;;;;;;;20.73;13.03;;;0.70;77.10;;;;;;5034643;28;20203;-66
2022/03/13 03:55:59;;;;;;;20.07;12.30;;;0.60;77.20;;;;;;5019897;28;20207;-66
2022/03/13 03:58:26;;;;;;;18.27;11.80;;;0.60;77.50;;;;;;5018883;28;20195;-66
2022/03/13 04:00:53;;;;;;;19.87;13.50;;;0.60;77.70;;;;;;5008713;28;20247;-66
2022/03/13 04:03:21;;;;;;;20.93;14.20;;;0.60;77.60;;;;;;5026135;28;20245;-66
2022/03/13 04:05:48;;;;;;;18.93;12.87;;;0.60;77.60;;;;;;5021417;28;20227;-66
2022/03/13 04:08:15;;;;;;;21.97;14.60;;;0.60;77.70;;;;;;5024906;28;20203;-66
2022/03/13 04:10:42;;;;;;;19.57;11.63;;;0.60;78.20;;;;;;5026541;28;20231;-66
2022/03/13 04:13:09;;;;;;;21.70;13.07;;;0.60;78.10;;;;;;5006144;28;20269;-66
2022/03/13 04:15:37;;;;;;;21.07;14.10;;;0.60;78.30;;;;;;5021777;28;20208;-66
2022/03/13 04:18:04;;;;;;;20.77;14.77;;;0.60;78.50;;;;;;5013258;28;20207;-66
2022/03/13 04:20:31;;;;;;;23.40;14.03;;;0.60;79.00;;;;;;5000644;28;20221;-66
2022/03/13 04:22:58;;;;;;;21.80;13.97;;;0.60;79.50;;;;;;5030634;28;20209;-66
2022/03/13 04:25:26;;;;;;;20.90;12.97;;;0.60;79.90;;;;;;5015971;28;20207;-66
2022/03/13 04:27:54;;;;;;;24.27;14.53;;;0.60;80.00;;;;;;5008148;28;20218;-66
2022/03/13 04:30:21;;;;;;;19.10;12.90;;;0.60;79.70;;;;;;5028675;28;20644;-66
2022/03/13 04:32:48;;;;;;;18.67;12.03;;;0.60;79.20;;;;;;5020669;28;20646;-66
2022/03/13 04:35:15;;;;;;;20.53;13.43;;;0.60;78.80;;;;;;5023725;28;20204;-66
2022/03/13 04:37:42;;;;;;;19.80;13.13;;;0.50;78.30;;;;;;5008725;28;20200;-66
2022/03/13 04:40:13;;;;;;;15.77;11.90;;;0.50;78.30;;;;;;5023430;28;20204;-66
2022/03/13 04:42:40;;;;;;;19.23;13.23;;;0.50;78.30;;;;;;5022699;28;21164;-66
2022/03/13 04:45:07;;;;;;;18.97;12.33;;;0.40;78.20;;;;;;5021724;28;20494;-66
2022/03/13 04:47:35;;;;;;;18.47;12.53;;;0.40;78.40;;;;;;5016787;28;20208;-66
2022/03/13 04:50:02;;;;;;;21.33;12.37;;;0.30;78.90;;;;;;5017656;28;20224;-66
2022/03/13 04:52:29;;;;;;;19.63;13.30;;;0.30;79.70;;;;;;5027698;28;20202;-66
2022/03/13 04:54:56;;;;;;;21.87;14.30;;;0.30;79.30;;;;;;5033951;28;20269;-66
2022/03/13 04:57:23;;;;;;;26.27;14.77;;;0.30;79.30;;;;;;5016092;28;20216;-66
2022/03/13 04:59:50;;;;;;;20.20;13.53;;;0.20;79.70;;;;;;5022959;28;20510;-66
2022/03/13 05:02:18;;;;;;;21.20;14.17;;;0.20;80.20;;;;;;5024961;28;20527;-66
2022/03/13 05:04:45;;;;;;;20.17;14.30;;;0.20;80.80;;;;;;5003301;28;20230;-66
2022/03/13 05:07:12;;;;;;;23.37;13.57;;;0.20;81.00;;;;;;5022198;28;20204;-66
2022/03/13 05:09:39;;;;;;;22.27;14.10;;;0.10;81.20;;;;;;5023453;28;20204;-66
2022/03/13 05:12:10;;;;;;;26.97;14.17;;;0.20;81.50;;;;;;5024917;28;20200;-66
2022/03/13 05:14:37;;;;;;;19.70;13.20;;;0.20;81.50;;;;;;5018980;28;20632;-66
2022/03/13 05:17:04;;;;;;;23.97;14.83;;;0.10;81.40;;;;;;5020323;28;20509;-66
2022/03/13 05:19:31;;;;;;;22.10;14.00;;;0.20;81.20;;;;;;5018765;28;20626;-66
2022/03/13 05:21:58;;;;;;;21.80;14.97;;;0.10;81.00;;;;;;5010226;28;20629;-66
2022/03/13 05:24:25;;;;;;;24.23;15.17;;;0.20;81.00;;;;;;5018785;28;20633;-66
2022/03/13 05:26:52;;;;;;;26.67;15.03;;;0.20;81.10;;;;;;5014758;28;20210;-66
2022/03/13 05:29:19;;;;;;;22.83;15.50;;;0.20;81.30;;;;;;5016876;28;20212;-66
2022/03/13 05:31:46;;;;;;;22.87;15.33;;;0.20;81.40;;;;;;5003846;28;20242;-66
2022/03/13 05:34:14;;;;;;;27.47;14.77;;;0.20;81.60;;;;;;5023088;28;20234;-66
2022/03/13 05:36:41;;;;;;;19.63;14.23;;;0.20;81.80;;;;;;5024337;28;20195;-66
2022/03/13 05:39:09;;;;;;;25.10;15.97;;;0.20;81.90;;;;;;5025071;28;20195;-66
2022/03/13 05:41:39;;;;;;;25.77;15.87;;;0.30;81.90;;;;;;5010399;28;20213;-66
2022/03/13 05:44:10;;;;;;;27.30;14.60;;;0.30;82.30;;;;;;5025607;28;20218;-66
2022/03/13 05:46:37;;;;;;;23.67;15.53;;;0.30;82.60;;;;;;5029212;28;20216;-66
2022/03/13 05:49:05;;;;;;;25.00;13.43;;;0.30;82.60;;;;;;5032162;28;20217;-66
2022/03/13 05:51:36;;;;;;;18.33;12.37;;;0.30;82.70;;;;;;5032294;28;20223;-66
2022/03/13 05:54:07;;;;;;;23.17;14.63;;;0.30;82.10;;;;;;5019820;28;20269;-66
2022/03/13 05:56:36;;;;;;;22.10;13.00;;;0.40;81.10;;;;;;5015280;28;20646;-66
2022/03/13 05:59:03;;;;;;;21.33;13.13;;;0.50;80.20;;;;;;5018239;28;20219;-66
2022/03/13 06:01:30;;;;;;;30.47;14.07;;;0.80;79.40;;;;;;5019619;28;20243;-66
2022/03/13 06:03:59;;;;;;;21.53;13.33;;;1.10;78.40;;;;;;5020711;28;20200;-66
2022/03/13 06:06:27;;;;;;;27.57;15.80;;;1.50;77.10;;;;;;5022918;28;20621;-66
2022/03/13 06:08:54;;;;;;;21.73;15.23;;;1.80;74.90;;;;;;5024150;28;20540;-66
2022/03/13 06:11:21;;;;;;;25.53;14.50;;;2.10;73.50;;;;;;5025477;28;20216;-66
2022/03/13 06:13:48;;;;;;;24.03;15.67;;;2.20;72.90;;;;;;5025095;28;20203;-66
2022/03/13 06:16:15;;;;;;;26.90;17.03;;;2.40;72.60;;;;;;5027187;28;20632;-66
2022/03/13 06:18:43;;;;;;;29.20;16.27;;;2.50;72.50;;;;;;5030477;28;20249;-66
2022/03/13 06:21:13;;;;;;;29.47;16.23;;;2.70;72.20;;;;;;5029317;28;20207;-66
2022/03/13 06:23:40;;;;;;;29.00;17.00;;;2.90;71.80;;;;;;5020870;28;20283;-66
2022/03/13 06:26:07;;;;;;;24.53;16.83;;;3.10;71.20;;;;;;5001622;28;20223;-67
2022/03/13 06:28:34;;;;;;;27.30;17.20;;;3.40;70.50;;;;;;5016718;28;20668;-67
2022/03/13 06:31:03;;;;;;;24.17;15.70;;;3.60;69.90;;;;;;5017992;28;20631;-67
2022/03/13 06:33:30;;;;;;;30.97;17.33;;;3.80;68.90;;;;;;5016723;28;20264;-67
2022/03/13 06:35:57;;;;;;;26.93;16.87;;;4.10;67.90;;;;;;5032304;28;20757;-67
2022/03/13 06:38:25;;;;;;;32.80;19.03;;;4.40;67.10;;;;;;5027277;28;20214;-67
2022/03/13 06:40:52;;;;;;;28.97;17.73;;;4.50;66.70;;;;;;5027917;28;20545;-67
2022/03/13 06:43:20;;;;;;;30.37;17.73;;;4.60;66.50;;;;;;5009838;28;20219;-67
2022/03/13 06:45:47;;;;;;;31.13;18.17;;;4.60;66.60;;;;;;5026279;28;20278;-67
2022/03/13 06:48:15;;;;;;;34.93;20.43;;;4.70;66.50;;;;;;5007240;28;20220;-67
2022/03/13 06:50:43;;;;;;;43.27;20.23;;;4.70;66.60;;;;;;5005175;28;20246;-67
2022/03/13 06:53:10;;;;;;;31.93;21.10;;;4.50;67.10;;;;;;5026033;28;20200;-67
2022/03/13 06:55:37;;;;;;;33.47;20.60;;;4.40;68.10;;;;;;5019784;28;20514;-67
2022/03/13 06:58:04;;;;;;;38.03;22.73;;;4.40;68.40;;;;;;5022049;28;20196;-67
2022/03/13 07:00:32;;;;;;;37.17;24.47;;;4.60;68.40;;;;;;5016536;28;20244;-67
2022/03/13 07:02:59;;;;;;;36.00;21.87;;;4.60;68.40;;;;;;5000578;28;20312;-67
2022/03/13 07:05:26;;;;;;;36.33;22.43;;;4.60;68.80;;;;;;5019321;28;20667;-67
2022/03/13 07:07:54;;;;;;;38.90;23.13;;;4.50;69.50;;;;;;5030261;28;20212;-67
2022/03/13 07:10:22;;;;;;;35.27;21.90;;;4.40;70.20;;;;;;5019501;28;20218;-67
2022/03/13 07:12:49;;;;;;;35.70;23.87;;;4.30;70.80;;;;;;5023636;28;20211;-67
2022/03/13 07:15:18;;;;;;;38.03;24.57;;;4.30;71.40;;;;;;5027115;28;20197;-67
2022/03/13 07:17:45;;;;;;;41.27;23.97;;;4.30;71.90;;;;;;5024874;28;20292;-67
2022/03/13 07:20:13;;;;;;;38.20;24.70;;;4.30;72.30;;;;;;5025637;28;20200;-67
2022/03/13 07:22:42;;;;;;;36.80;24.30;;;4.30;72.60;;;;;;5028030;28;20196;-67
2022/03/13 07:25:10;;;;;;;38.00;24.30;;;4.40;72.70;;;;;;5017562;28;20202;-67
2022/03/13 07:27:37;;;;;;;37.33;24.03;;;4.40;72.70;;;;;;5018548;28;20207;-67
2022/03/13 07:30:06;;;;;;;42.17;24.50;;;4.50;72.60;;;;;;5017042;28;20527;-67
2022/03/13 07:32:34;;;;;;;41.00;25.57;;;4.60;72.80;;;;;;5015721;28;20225;-67
2022/03/13 07:35:01;;;;;;;41.70;26.50;;;4.60;73.00;;;;;;5000441;28;20276;-67
2022/03/13 07:37:28;;;;;;;38.13;24.37;;;4.80;73.00;;;;;;5019081;28;20202;-67
2022/03/13 07:39:56;;;;;;;40.63;25.67;;;4.90;72.60;;;;;;5003209;28;20219;-67
2022/03/13 07:42:23;;;;;;;38.43;25.37;;;4.90;72.10;;;;;;5026429;28;20547;-67
2022/03/13 07:44:50;;;;;;;46.40;27.27;;;5.00;71.80;;;;;;5027023;28;20214;-67
2022/03/13 07:47:17;;;;;;;35.87;23.67;;;5.10;72.20;;;;;;5022064;28;20202;-67
2022/03/13 07:49:44;;;;;;;36.63;24.77;;;5.20;72.50;;;;;;5024693;28;20209;-67
2022/03/13 07:52:12;;;;;;;55.70;27.70;;;5.40;72.10;;;;;;5019186;28;20234;-66
2022/03/13 07:54:39;;;;;;;41.90;27.67;;;5.50;71.60;;;;;;5003488;28;20629;-66
2022/03/13 07:57:06;;;;;;;38.63;26.43;;;5.70;72.10;;;;;;5018845;28;20211;-66
2022/03/13 07:59:33;;;;;;;38.47;26.30;;;5.90;71.90;;;;;;5017933;28;20203;-66
2022/03/13 08:02:01;;;;;;;43.77;27.43;;;6.10;71.40;;;;;;5016151;28;20215;-66
2022/03/13 08:04:28;;;;;;;39.00;25.03;;;6.30;70.90;;;;;;5017747;28;20211;-66
2022/03/13 08:06:55;;;;;;;36.30;26.20;;;6.60;70.40;;;;;;5032918;28;20206;-66
2022/03/13 08:09:22;;;;;;;40.73;26.73;;;6.80;69.60;;;;;;5026367;28;20238;-66
2022/03/13 08:11:49;;;;;;;38.77;26.73;;;7.00;68.80;;;;;;5020641;28;20677;-66
2022/03/13 08:14:16;;;;;;;41.40;26.33;;;7.10;68.20;;;;;;5021839;28;20201;-66
2022/03/13 08:16:44;;;;;;;38.57;26.83;;;7.20;67.80;;;;;;5023255;28;20213;-67
2022/03/13 08:19:11;;;;;;;37.23;26.47;;;7.30;67.60;;;;;;5024398;28;20325;-67
2022/03/13 08:21:38;;;;;;;35.07;25.67;;;7.40;68.10;;;;;;5024801;28;20230;-66
2022/03/13 08:24:08;;;;;;;34.20;22.93;;;7.70;67.20;;;;;;5027532;28;20213;-66
2022/03/13 08:26:40;;;;;;;34.33;22.97;;;7.90;66.90;;;;;;5010652;28;20237;-66
2022/03/13 08:29:08;;;;;;;31.53;22.03;;;8.20;66.40;;;;;;5030631;28;20210;-66
2022/03/13 08:31:35;;;;;;;32.10;20.90;;;8.50;65.30;;;;;;5032000;28;20226;-66
2022/03/13 08:34:07;;;;;;;26.53;18.80;;;8.70;64.30;;;;;;5033428;28;20199;-66
2022/03/13 08:36:40;;;;;;;23.80;16.10;;;9.00;63.40;;;;;;5015476;28;20200;-66
2022/03/13 08:39:07;;;;;;;21.27;16.10;;;9.20;62.40;;;;;;5024068;28;20542;-66
2022/03/13 08:41:35;;;;;;;23.43;16.87;;;9.40;61.60;;;;;;5019034;28;20218;-67
2022/03/13 08:44:03;;;;;;;24.17;16.53;;;9.40;60.00;;;;;;5016561;28;20207;-67
2022/03/13 08:46:30;;;;;;;23.07;16.73;;;9.60;60.00;;;;;;5024746;28;20298;-67
2022/03/13 08:48:57;;;;;;;25.73;17.10;;;9.70;59.40;;;;;;5021643;28;20633;-67
2022/03/13 08:51:27;;;;;;;21.93;15.43;;;9.80;59.00;;;;;;5022513;28;20231;-67
2022/03/13 08:53:56;;;;;;;26.60;16.03;;;9.90;58.80;;;;;;5021755;28;20265;-67
2022/03/13 08:56:23;;;;;;;20.90;14.67;;;10.00;57.90;;;;;;5026050;28;20525;-67
2022/03/13 08:58:50;;;;;;;24.70;14.10;;;10.10;57.60;;;;;;5029971;28;20675;-67
2022/03/13 09:01:18;;;;;;;23.87;14.50;;;10.10;57.30;;;;;;5013994;28;20247;-67
2022/03/13 09:03:48;;;;;;;22.13;14.93;;;10.20;56.70;;;;;;5026194;28;20216;-67
2022/03/13 09:06:15;;;;;;;21.93;15.60;;;10.30;56.10;;;;;;5019195;28;20212;-67
2022/03/13 09:08:42;;;;;;;21.33;14.73;;;10.40;55.00;;;;;;5020582;28;20214;-67
2022/03/13 09:11:10;;;;;;;18.30;13.97;;;10.40;54.70;;;;;;5021457;28;20226;-67
2022/03/13 09:13:37;;;;;;;14.03;11.27;;;10.40;54.90;;;;;;5029180;28;20279;-67
2022/03/13 09:16:05;;;;;;;18.53;12.80;;;10.50;54.00;;;;;;5014081;28;20207;-67
2022/03/13 09:18:32;;;;;;;15.10;10.87;;;10.60;53.20;;;;;;5031345;28;20287;-68
2022/03/13 09:20:59;;;;;;;14.17;11.03;;;10.70;53.00;;;;;;5026579;28;20201;-67
2022/03/13 09:23:27;;;;;;;14.63;10.83;;;10.70;52.00;;;;;;5028847;28;20210;-67
2022/03/13 09:25:55;;;;;;;13.97;10.90;;;10.80;53.10;;;;;;5006147;28;20292;-67
2022/03/13 09:28:23;;;;;;;14.43;10.57;;;11.00;51.10;;;;;;5023645;28;20208;-67
2022/03/13 09:30:50;;;;;;;14.83;10.00;;;11.00;50.90;;;;;;5021695;28;20215;-67
2022/03/13 09:33:17;;;;;;;12.30;10.27;;;10.80;50.60;;;;;;5018226;28;20322;-66
2022/03/13 09:35:45;;;;;;;11.87;9.60;;;10.60;51.20;;;;;;5002052;28;20638;-67
2022/03/13 09:38:12;;;;;;;14.43;9.10;;;10.60;51.90;;;;;;5017422;28;20259;-66
2022/03/13 09:40:40;;;;;;;14.37;9.80;;;10.70;52.20;;;;;;5019339;28;20210;-67
2022/03/13 09:43:07;;;;;;;12.87;8.93;;;10.70;51.10;;;;;;5003830;28;20303;-67
2022/03/13 09:45:35;;;;;;;14.60;9.17;;;10.80;51.40;;;;;;5022258;28;20287;-67
2022/03/13 09:48:06;;;;;;;11.40;9.40;;;10.90;51.00;;;;;;5030419;28;20220;-67
2022/03/13 09:50:33;;;;;;;12.33;8.93;;;11.00;51.20;;;;;;5028414;28;20229;-66
2022/03/13 09:53:00;;;;;;;12.23;7.67;;;11.10;50.90;;;;;;5026629;28;20674;-66
2022/03/13 09:55:27;;;;;;;10.53;7.23;;;11.30;50.10;;;;;;5024482;28;20242;-66
2022/03/13 09:57:54;;;;;;;8.30;6.60;;;11.40;50.80;;;;;;5025874;28;20208;-66
2022/03/13 10:00:21;;;;;;;9.03;7.20;;;11.60;49.70;;;;;;5022429;28;20241;-66
2022/03/13 10:02:53;;;;;;;9.47;7.60;;;11.70;48.30;;;;;;5028259;28;20202;-66
2022/03/13 10:05:22;;;;;;;10.93;8.23;;;11.60;48.00;;;;;;5019373;28;20202;-66
2022/03/13 10:07:57;;;;;;;7.40;5.57;;;11.70;48.60;;;;;;5030200;28;20219;-67
2022/03/13 10:10:29;;;;;;;8.63;6.60;;;11.80;47.00;;;;;;5036166;28;20547;-67
2022/03/13 10:12:59;;;;;;;12.70;7.20;;;11.70;48.20;;;;;;5034260;28;20302;-66
2022/03/13 10:15:26;;;;;;;12.13;7.47;;;11.80;46.90;;;;;;5017567;28;20642;-66
2022/03/13 10:17:53;;;;;;;9.57;6.33;;;11.80;48.10;;;;;;5027696;28;20201;-66
2022/03/13 10:20:26;;;;;;;7.40;6.60;;;11.80;46.90;;;;;;5029746;28;20224;-66
2022/03/13 10:23:01;;;;;;;7.67;6.07;;;11.80;45.80;;;;;;5010361;28;20241;-66
2022/03/13 10:25:35;;;;;;;10.47;6.97;;;11.70;47.30;;;;;;5026733;28;20212;-66
2022/03/13 10:28:26;;;;;;;9.80;6.80;;;11.70;47.20;;;;;;5024516;28;20213;-66
2022/03/13 10:30:58;;;;;;;14.17;7.00;;;11.80;48.30;;;;;;5022854;28;20201;-66
2022/03/13 10:33:45;;;;;;;7.03;5.50;;;11.90;48.10;;;;;;5027508;28;20217;-66
2022/03/13 10:36:14;;;;;;;7.77;6.20;;;12.10;48.60;;;;;;5033323;28;20209;-66
2022/03/13 10:38:43;;;;;;;9.13;7.60;;;12.20;46.60;;;;;;5025581;28;20235;-66
2022/03/13 10:41:12;;;;;;;9.13;7.53;;;12.20;47.00;;;;;;5023311;28;21074;-66
2022/03/13 10:43:52;;;;;;;11.10;8.33;;;12.30;47.90;;;;;;5034090;28;20599;-67
2022/03/13 10:46:35;;;;;;;10.27;7.17;;;12.30;48.40;;;;;;5031697;28;20229;-67
2022/03/13 10:49:09;;;;;;;8.60;7.47;;;12.40;48.50;;;;;;5018852;28;20215;-67
2022/03/13 10:51:39;;;;;;;10.07;7.20;;;12.50;49.20;;;;;;5023755;28;20697;-67
2022/03/13 10:54:07;;;;;;;10.63;8.47;;;12.50;47.90;;;;;;5025806;28;20201;-67
2022/03/13 10:56:34;;;;;;;9.67;6.90;;;12.60;47.80;;;;;;5025074;28;20207;-67
2022/03/13 10:59:17;;;;;;;8.57;7.47;;;12.70;48.30;;;;;;5022902;28;20214;-67
2022/03/13 11:02:14;;;;;;;10.33;8.13;;;12.70;48.00;;;;;;5019100;28;20251;-67
2022/03/13 11:04:49;;;;;;;11.20;6.30;;;12.80;47.00;;;;;;5032057;28;20257;-67
2022/03/13 11:07:18;;;;;;;7.80;6.30;;;12.70;47.80;;;;;;5030978;28;20209;-67
2022/03/13 11:09:46;;;;;;;7.43;5.93;;;12.70;47.80;;;;;;5017269;28;20202;-67
2022/03/13 11:12:20;;;;;;;8.63;6.23;;;12.70;47.60;;;;;;5017047;28;20216;-67
2022/03/13 11:14:49;;;;;;;7.40;6.70;;;12.80;47.20;;;;;;5018227;28;20206;-67
2022/03/13 11:17:19;;;;;;;7.43;6.63;;;12.90;47.50;;;;;;5031844;28;20285;-67
2022/03/13 11:19:52;;;;;;;7.73;5.93;;;13.00;47.90;;;;;;5018775;28;20207;-67
2022/03/13 11:22:20;;;;;;;7.03;5.17;;;13.00;47.90;;;;;;5032026;28;20228;-67
2022/03/13 11:24:50;;;;;;;6.07;4.93;;;13.10;46.10;;;;;;5026084;28;20250;-67
2022/03/13 11:27:18;;;;;;;8.43;5.60;;;12.90;47.60;;;;;;5007879;28;20638;-66
2022/03/13 11:29:52;;;;;;;10.60;6.07;;;12.90;48.10;;;;;;5024538;28;20213;-67
2022/03/13 11:32:49;;;;;;;6.60;5.90;;;12.80;47.80;;;;;;5024019;28;20226;-67
2022/03/13 11:35:17;;;;;;;12.47;6.60;;;12.70;47.80;;;;;;5019962;28;20204;-67
2022/03/13 11:37:53;;;;;;;7.53;5.50;;;12.80;48.70;;;;;;5026066;28;20208;-67
2022/03/13 11:40:31;;;;;;;7.53;5.73;;;13.00;50.40;;;;;;5000619;28;20210;-67
2022/03/13 11:43:07;;;;;;;6.90;6.17;;;13.20;50.40;;;;;;5012059;28;20259;-68
2022/03/13 11:45:36;;;;;;;5.67;5.03;;;13.40;50.20;;;;;;5016747;28;20554;-68
2022/03/13 11:48:22;;;;;;;6.40;5.80;;;13.60;48.60;;;;;;5001588;28;20263;-68
2022/03/13 11:50:52;;;;;;;7.00;6.30;;;13.80;47.00;;;;;;5020227;28;20603;-68
2022/03/13 11:53:24;;;;;;;6.67;6.03;;;13.90;46.40;;;;;;5004733;28;20238;-68
2022/03/13 11:56:21;;;;;;;8.60;6.70;;;13.80;46.50;;;;;;5024716;28;20260;-68
2022/03/13 11:58:50;;;;;;;11.03;6.40;;;14.00;48.20;;;;;;5022201;28;20201;-68
2022/03/13 12:01:19;;;;;;;9.17;6.60;;;14.10;48.00;;;;;;5010580;28;20241;-68
2022/03/13 12:04:04;;;;;;;7.80;6.13;;;14.30;48.20;;;;;;5004822;28;20269;-67
2022/03/13 12:06:43;;;;;;;9.17;7.87;;;14.50;46.30;;;;;;5019599;28;20221;-67
2022/03/13 12:09:18;;;;;;;10.03;6.77;;;14.40;45.30;;;;;;5018237;28;20204;-67
2022/03/13 12:11:50;;;;;;;10.17;7.83;;;14.10;46.30;;;;;;5015801;28;20221;-68
2022/03/13 12:14:19;;;;;;;8.73;7.30;;;13.90;47.70;;;;;;5012837;28;20214;-68
2022/03/13 12:17:03;;;;;;;9.77;7.30;;;13.70;47.60;;;;;;4999623;28;20214;-68
2022/03/13 12:19:38;;;;;;;9.10;6.90;;;13.50;48.20;;;;;;5018271;28;20209;-68
2022/03/13 12:22:05;;;;;;;10.70;8.10;;;13.30;49.30;;;;;;5025389;28;20210;-67
2022/03/13 12:24:33;;;;;;;7.67;6.77;;;13.20;49.60;;;;;;5028204;28;20206;-67
2022/03/13 12:27:07;;;;;;;7.90;7.10;;;13.30;49.60;;;;;;5026798;28;20208;-68
2022/03/13 12:29:34;;;;;;;8.87;7.13;;;13.20;48.60;;;;;;5022564;28;20221;-68
2022/03/13 12:32:02;;;;;;;10.40;7.13;;;13.20;50.70;;;;;;5026089;28;20218;-68
2022/03/13 12:34:30;;;;;;;10.07;7.17;;;13.30;50.40;;;;;;5027182;28;20632;-68
2022/03/13 12:37:00;;;;;;;10.03;7.13;;;13.50;48.80;;;;;;5023544;28;20205;-68
2022/03/13 12:39:29;;;;;;;9.17;6.40;;;13.60;50.80;;;;;;5021753;28;20202;-67
2022/03/13 12:41:58;;;;;;;7.53;5.77;;;13.70;50.20;;;;;;5014988;28;20214;-67
2022/03/13 12:44:36;;;;;;;7.07;6.17;;;13.80;48.40;;;;;;5008286;28;20208;-67
2022/03/13 12:47:03;;;;;;;7.60;6.70;;;13.80;49.70;;;;;;5033517;28;20230;-67
2022/03/13 12:49:32;;;;;;;7.23;6.27;;;13.80;49.30;;;;;;5032110;28;20221;-67